createdAt,value
2022-10-11T00:00:11.177Z,5.40
2022-10-11T00:03:16.773Z,5.90
2022-10-11T00:05:55.393Z,5.18
2022-10-11T00:09:14.741Z,6.05
2022-10-11T00:11:54.632Z,5.07
2022-10-11T00:14:34.107Z,4.65
2022-10-11T00:17:35.898Z,5.25
2022-10-11T00:20:40.445Z,5.40
2022-10-11T00:23:17.099Z,5.07
2022-10-11T00:25:59.147Z,5.60
2022-10-11T00:28:38.688Z,4.95
2022-10-11T00:31:18.767Z,5.30
2022-10-11T00:33:57.618Z,5.10
2022-10-11T00:36:38.987Z,5.45
2022-10-11T00:39:17.290Z,4.63
2022-10-11T00:41:56.081Z,5.28
2022-10-11T00:44:36.175Z,5.28
2022-10-11T00:47:18.824Z,5.68
2022-10-11T00:50:21.302Z,5.75
2022-10-11T00:53:01.178Z,5.65
2022-10-11T00:56:00.229Z,5.07
2022-10-11T00:58:49.161Z,4.55
2022-10-11T01:01:32.239Z,5.15
2022-10-11T01:04:09.881Z,5.30
2022-10-11T01:06:48.982Z,5.60
2022-10-11T01:09:30.661Z,5.43
2022-10-11T01:12:15.894Z,5.30
2022-10-11T01:15:06.433Z,5.63
2022-10-11T01:17:49.477Z,5.32
2022-10-11T01:20:32.015Z,5.63
2022-10-11T01:23:54.400Z,5.63
2022-10-11T01:26:41.409Z,5.63
2022-10-11T01:29:39.220Z,6.38
2022-10-11T01:32:45.354Z,5.75
2022-10-11T01:35:31.226Z,5.97
2022-10-11T01:38:35.711Z,5.20
2022-10-11T01:41:23.673Z,5.50
2022-10-11T01:44:01.944Z,5.88
2022-10-11T01:46:41.010Z,5.93
2022-10-11T01:49:34.011Z,5.93
2022-10-11T01:52:11.874Z,4.45
2022-10-11T01:55:09.771Z,5.43
2022-10-11T01:57:59.487Z,6.25
2022-10-11T02:01:01.074Z,5.70
2022-10-11T02:04:04.864Z,5.60
2022-10-11T02:06:51.332Z,6.05
2022-10-11T02:09:35.565Z,6.10
2022-10-11T02:12:20.191Z,5.63
2022-10-11T02:14:58.722Z,6.15
2022-10-11T02:17:40.939Z,4.72
2022-10-11T02:20:22.122Z,6.60
2022-10-11T02:23:03.775Z,5.40
2022-10-11T02:25:42.888Z,6.00
2022-10-11T02:28:24.448Z,5.75
2022-10-11T02:31:07.190Z,5.85
2022-10-11T02:33:50.434Z,5.35
2022-10-11T02:36:37.456Z,6.15
2022-10-11T02:39:41.158Z,6.18
2022-10-11T02:42:19.234Z,5.93
2022-10-11T02:45:07.791Z,6.10
2022-10-11T02:47:47.889Z,6.22
2022-10-11T02:50:29.728Z,5.20
2022-10-11T02:53:33.744Z,5.90
2022-10-11T02:56:09.980Z,5.00
2022-10-11T02:59:14.560Z,5.78
2022-10-11T03:01:54.519Z,5.75
2022-10-11T03:04:34.285Z,5.40
2022-10-11T03:07:55.848Z,5.97
2022-10-11T03:10:34.438Z,6.15
2022-10-11T03:13:17.840Z,6.20
2022-10-11T03:16:03.213Z,6.10
2022-10-11T03:19:23.317Z,5.80
2022-10-11T03:22:22.358Z,6.15
2022-10-11T03:25:26.210Z,5.50
2022-10-11T03:28:05.691Z,5.82
2022-10-11T03:30:50.135Z,5.45
2022-10-11T03:33:31.026Z,7.18
2022-10-11T03:36:10.310Z,6.63
2022-10-11T03:38:49.034Z,6.93
2022-10-11T03:41:40.763Z,6.18
2022-10-11T03:44:27.354Z,6.93
2022-10-11T03:47:06.193Z,6.25
2022-10-11T03:49:46.808Z,5.65
2022-10-11T03:52:25.798Z,6.53
2022-10-11T03:55:02.378Z,6.47
2022-10-11T03:57:40.599Z,6.47
2022-10-11T04:00:17.486Z,6.03
2022-10-11T04:02:59.231Z,6.45
2022-10-11T04:05:36.840Z,7.05
2022-10-11T04:09:06.692Z,6.18
2022-10-11T04:11:45.478Z,7.30
2022-10-11T04:14:25.326Z,6.60
2022-10-11T04:17:06.627Z,6.75
2022-10-11T04:19:46.463Z,6.70
2022-10-11T04:22:50.640Z,6.82
2022-10-11T04:25:29.210Z,7.00
2022-10-11T04:28:10.483Z,6.28
2022-10-11T04:30:48.865Z,6.57
2022-10-11T04:33:27.894Z,6.38
2022-10-11T04:36:14.633Z,5.88
2022-10-11T04:39:21.794Z,6.40
2022-10-11T04:42:02.422Z,6.30
2022-10-11T04:44:41.761Z,6.22
2022-10-11T04:47:20.474Z,7.55
2022-10-11T04:49:59.393Z,6.90
2022-10-11T04:52:43.361Z,7.03
2022-10-11T04:55:22.147Z,6.35
2022-10-11T04:57:58.799Z,7.15
2022-10-11T05:00:39.754Z,6.03
2022-10-11T05:03:21.533Z,5.82
2022-10-11T05:06:17.155Z,6.78
2022-10-11T05:08:59.172Z,6.32
2022-10-11T05:11:39.184Z,6.68
2022-10-11T05:14:19.209Z,7.05
2022-10-11T05:16:57.021Z,6.43
2022-10-11T05:19:35.774Z,6.70
2022-10-11T05:22:18.922Z,6.03
2022-10-11T05:25:12.523Z,6.45
2022-10-11T05:27:50.720Z,7.30
2022-10-11T05:30:29.851Z,6.80
2022-10-11T05:33:11.864Z,6.70
2022-10-11T05:36:10.111Z,7.10
2022-10-11T05:38:54.016Z,6.50
2022-10-11T05:41:32.188Z,7.10
2022-10-11T05:44:10.295Z,7.65
2022-10-11T05:46:48.419Z,7.15
2022-10-11T05:49:29.251Z,7.60
2022-10-11T05:52:09.316Z,6.70
2022-10-11T05:54:48.311Z,7.55
2022-10-11T05:57:26.246Z,7.20
2022-10-11T06:00:08.359Z,7.00
2022-10-11T06:02:53.671Z,7.07
2022-10-11T06:05:31.974Z,7.00
2022-10-11T06:08:18.087Z,6.80
2022-10-11T06:10:56.250Z,7.47
2022-10-11T06:14:03.448Z,7.00
2022-10-11T06:20:44.158Z,7.57
2022-10-11T06:23:36.007Z,7.25
2022-10-11T06:26:31.370Z,7.35
2022-10-11T06:29:26.863Z,7.15
2022-10-11T06:35:40.114Z,6.90
2022-10-11T06:39:09.107Z,6.35
2022-10-11T06:42:05.206Z,6.75
2022-10-11T06:44:44.449Z,6.57
2022-10-11T06:47:52.085Z,6.63
2022-10-11T06:50:59.970Z,7.03
2022-10-11T06:53:57.828Z,8.05
2022-10-11T06:56:55.695Z,6.65
2022-10-11T06:59:32.150Z,7.03
2022-10-11T07:02:35.904Z,7.30
2022-10-11T07:05:32.507Z,7.50
2022-10-11T07:08:29.431Z,7.80
2022-10-11T07:11:25.997Z,6.53
2022-10-11T07:14:18.270Z,7.25
2022-10-11T07:17:13.504Z,6.63
2022-10-11T07:20:17.546Z,8.07
2022-10-11T07:23:27.040Z,6.47
2022-10-11T07:26:19.901Z,7.00
2022-10-11T07:29:15.347Z,7.03
2022-10-11T07:32:10.608Z,8.18
2022-10-11T07:35:06.228Z,7.70
2022-10-11T07:38:00.287Z,6.50
2022-10-11T07:40:43.478Z,7.65
2022-10-11T07:43:59.817Z,6.82
2022-10-11T07:46:52.878Z,7.30
2022-10-11T07:49:56.480Z,7.07
2022-10-11T07:53:18.972Z,6.50
2022-10-11T07:56:23.088Z,7.00
2022-10-11T07:59:14.479Z,8.30
2022-10-11T08:05:53.326Z,6.97
2022-10-11T08:09:00.743Z,7.55
2022-10-11T08:11:39.501Z,7.63
2022-10-11T08:14:54.637Z,7.03
2022-10-11T08:17:31.786Z,8.13
2022-10-11T08:20:11.146Z,8.90
2022-10-11T08:23:12.925Z,8.63
2022-10-11T08:26:07.791Z,7.63
2022-10-11T08:28:44.693Z,7.88
2022-10-11T08:31:48.385Z,8.77
2022-10-11T08:35:51.337Z,8.60
2022-10-11T08:38:55.322Z,9.00
2022-10-11T08:41:54.471Z,8.65
2022-10-11T08:45:12.427Z,8.05
2022-10-11T08:48:05.611Z,8.55
2022-10-11T08:50:52.483Z,8.80
2022-10-11T08:53:49.362Z,9.63
2022-10-11T08:56:41.943Z,7.55
2022-10-11T08:59:37.264Z,8.15
2022-10-11T09:03:02.838Z,7.90
2022-10-11T09:06:22.103Z,9.32
2022-10-11T09:09:56.050Z,7.68
2022-10-11T09:13:16.447Z,7.78
2022-10-11T09:16:27.422Z,7.20
2022-10-11T09:19:29.201Z,7.78
2022-10-11T09:22:42.601Z,7.67
2022-10-11T09:26:05.607Z,8.25
2022-10-11T09:29:00.052Z,7.70
2022-10-11T09:31:48.411Z,9.45
2022-10-11T09:34:37.405Z,9.40
2022-10-11T09:37:44.185Z,8.63
2022-10-11T09:40:37.860Z,8.80
2022-10-11T09:43:48.783Z,8.93
2022-10-11T09:46:41.164Z,8.98
2022-10-11T09:49:37.599Z,9.20
2022-10-11T09:52:24.648Z,9.30
2022-10-11T09:55:29.426Z,7.38
2022-10-11T09:58:34.745Z,8.57
2022-10-11T10:01:24.847Z,8.93
2022-10-11T10:04:13.083Z,8.18
2022-10-11T10:07:10.114Z,8.73
2022-10-11T10:09:56.344Z,8.80
2022-10-11T10:13:08.913Z,8.02
2022-10-11T10:15:56.675Z,7.95
2022-10-11T10:18:44.240Z,8.57
2022-10-11T10:21:37.556Z,8.75
2022-10-11T10:24:32.890Z,7.20
2022-10-11T10:27:19.105Z,8.73
2022-10-11T10:30:08.171Z,7.13
2022-10-11T10:33:21.054Z,7.68
2022-10-11T10:36:10.088Z,7.80
2022-10-11T10:38:55.991Z,7.00
2022-10-11T10:41:42.297Z,7.70
2022-10-11T10:44:37.948Z,7.88
2022-10-11T10:47:43.054Z,8.48
2022-10-11T10:50:54.379Z,8.10
2022-10-11T10:53:54.803Z,7.63
2022-10-11T10:56:46.191Z,7.32
2022-10-11T10:59:31.886Z,7.20
2022-10-11T11:02:43.479Z,8.30
2022-10-11T11:05:48.543Z,7.70
2022-10-11T11:08:49.735Z,8.70
2022-10-11T11:11:54.434Z,8.40
2022-10-11T11:15:05.316Z,8.85
2022-10-11T11:17:54.081Z,7.78
2022-10-11T11:20:58.990Z,14.45
2022-10-11T11:24:15.849Z,9.70
2022-10-11T11:30:37.157Z,9.63
2022-10-11T11:33:48.908Z,9.48
2022-10-11T11:39:46.076Z,9.40
2022-10-11T11:43:01.327Z,8.80
2022-10-11T11:45:47.467Z,8.93
2022-10-11T11:48:39.568Z,10.48
2022-10-11T11:51:32.925Z,8.35
2022-10-11T11:54:44.006Z,9.63
2022-10-11T11:57:48.551Z,8.95
2022-10-11T12:00:39.327Z,9.10
2022-10-11T12:03:49.631Z,9.45
2022-10-11T12:06:47.774Z,8.80
2022-10-11T12:10:08.436Z,7.55
2022-10-11T12:13:04.228Z,9.33
2022-10-11T12:16:12.535Z,8.88
2022-10-11T12:19:02.908Z,8.73
2022-10-11T12:22:34.058Z,9.30
2022-10-11T12:25:22.553Z,9.02
2022-10-11T12:28:26.775Z,9.98
2022-10-11T12:31:27.831Z,8.77
2022-10-11T12:34:36.549Z,9.43
2022-10-11T12:37:47.115Z,7.93
2022-10-11T12:40:44.713Z,9.15
2022-10-11T12:43:51.032Z,8.93
2022-10-11T12:46:44.205Z,8.68
2022-10-11T12:49:31.462Z,8.60
2022-10-11T12:52:18.395Z,8.63
2022-10-11T12:55:08.448Z,7.82
2022-10-11T12:58:01.278Z,8.77
2022-10-11T13:01:00.328Z,7.93
2022-10-11T13:03:53.327Z,9.27
2022-10-11T13:06:56.934Z,9.30
2022-10-11T13:09:48.787Z,9.18
2022-10-11T13:12:40.041Z,9.38
2022-10-11T13:15:26.456Z,9.02
2022-10-11T13:18:37.377Z,8.65
2022-10-11T13:21:48.262Z,8.20
2022-10-11T13:24:38.686Z,8.30
2022-10-11T13:27:26.600Z,9.30
2022-10-11T13:30:37.471Z,8.95
2022-10-11T13:33:34.538Z,11.75
2022-10-11T13:36:21.296Z,10.25
2022-10-11T13:39:32.450Z,9.73
2022-10-11T13:42:19.949Z,9.57
2022-10-11T13:45:31.456Z,8.50
2022-10-11T13:48:17.472Z,8.77
2022-10-11T13:51:09.441Z,7.25
2022-10-11T13:54:20.669Z,8.55
2022-10-11T13:57:37.507Z,7.57
2022-10-11T14:00:28.089Z,8.25
2022-10-11T14:03:15.067Z,8.05
2022-10-11T14:08:59.637Z,7.53
2022-10-11T14:11:45.789Z,8.20
2022-10-11T14:14:58.483Z,8.18
2022-10-11T14:20:38.881Z,8.07
2022-10-11T14:23:50.314Z,7.50
2022-10-11T14:26:37.451Z,8.18
2022-10-11T14:29:25.036Z,8.82
2022-10-11T14:32:14.124Z,8.48
2022-10-11T14:35:25.626Z,8.38
2022-10-11T14:38:19.827Z,8.65
2022-10-11T14:41:31.574Z,8.98
2022-10-11T14:44:22.109Z,9.65
2022-10-11T14:47:08.137Z,7.68
2022-10-11T14:49:54.025Z,7.40
2022-10-11T14:53:06.185Z,7.20
2022-10-11T14:55:52.990Z,7.60
2022-10-11T14:58:39.246Z,8.65
2022-10-11T15:01:54.377Z,7.00
2022-10-11T15:04:43.582Z,7.28
2022-10-11T15:07:31.005Z,6.93
2022-10-11T15:10:41.782Z,9.23
2022-10-11T15:13:42.208Z,10.25
2022-10-11T15:16:58.349Z,15.93
2022-10-11T15:19:46.751Z,19.33
2022-10-11T15:22:57.567Z,13.18
2022-10-11T15:25:43.962Z,9.32
2022-10-11T15:28:32.123Z,8.65
2022-10-11T15:31:18.929Z,12.27
2022-10-11T15:34:05.235Z,11.18
2022-10-11T15:36:51.713Z,10.73
2022-10-11T15:39:38.556Z,9.32
2022-10-11T15:42:25.481Z,8.40
2022-10-11T15:45:18.587Z,12.63
2022-10-11T15:48:05.679Z,7.57
2022-10-11T15:51:10.112Z,7.10
2022-10-11T15:53:55.872Z,8.98
2022-10-11T15:56:43.323Z,8.52
2022-10-11T15:59:39.142Z,7.75
2022-10-11T16:02:50.438Z,6.30
2022-10-11T16:05:36.314Z,7.10
2022-10-11T16:08:22.995Z,14.75
2022-10-11T16:11:09.567Z,11.07
2022-10-11T16:13:56.417Z,10.50
2022-10-11T16:16:44.642Z,10.00
2022-10-11T16:19:30.691Z,10.48
2022-10-11T16:22:17.263Z,8.32
2022-10-11T16:25:22.496Z,9.00
2022-10-11T16:28:37.836Z,11.10
2022-10-11T16:31:24.217Z,10.82
2022-10-11T16:34:11.173Z,12.57
2022-10-11T16:37:01.279Z,13.57
2022-10-11T16:39:47.643Z,13.23
2022-10-11T16:42:36.020Z,12.85
2022-10-11T16:45:22.843Z,12.48
2022-10-11T16:48:08.640Z,13.18
2022-10-11T16:50:54.812Z,14.25
2022-10-11T16:53:40.782Z,13.20
2022-10-11T16:56:28.052Z,13.55
2022-10-11T16:59:14.439Z,11.13
2022-10-11T17:02:00.362Z,19.75
2022-10-11T17:04:46.634Z,18.35
2022-10-11T17:07:57.726Z,14.40
2022-10-11T17:11:09.672Z,44.85
2022-10-11T17:13:56.490Z,22.50
2022-10-11T17:16:45.610Z,16.75
2022-10-11T17:19:35.070Z,13.70
2022-10-11T17:22:51.644Z,14.30
2022-10-11T17:25:58.390Z,16.17
2022-10-11T17:28:44.573Z,29.67
2022-10-11T17:31:30.843Z,23.92
2022-10-11T17:34:42.476Z,19.25
2022-10-11T17:37:28.334Z,17.48
2022-10-11T17:40:15.070Z,10.60
2022-10-11T17:43:01.408Z,9.73
2022-10-11T17:45:54.433Z,8.40
2022-10-11T17:48:40.673Z,8.77
2022-10-11T17:51:28.565Z,8.02
2022-10-11T17:54:16.443Z,9.63
2022-10-11T17:57:02.952Z,11.02
2022-10-11T17:59:49.060Z,12.32
2022-10-11T18:02:35.681Z,10.82
2022-10-11T18:05:21.899Z,9.55
2022-10-11T18:08:08.259Z,8.95
2022-10-11T18:10:54.329Z,8.52
2022-10-11T18:13:48.351Z,7.35
2022-10-11T18:16:35.340Z,8.30
2022-10-11T18:19:21.460Z,7.43
2022-10-11T18:22:07.710Z,9.02
2022-10-11T18:25:07.531Z,8.63
2022-10-11T18:27:58.703Z,10.30
2022-10-11T18:31:13.335Z,12.63
2022-10-11T18:33:59.494Z,15.90
2022-10-11T18:36:45.606Z,15.43
2022-10-11T18:39:57.369Z,14.50
2022-10-11T18:42:43.463Z,13.50
2022-10-11T18:45:29.529Z,15.18
2022-10-11T18:48:15.771Z,17.15
2022-10-11T18:51:12.494Z,18.48
2022-10-11T18:53:59.050Z,18.92
2022-10-11T18:56:45.131Z,18.02
2022-10-11T18:59:32.431Z,21.55
2022-10-11T19:02:18.384Z,19.00
2022-10-11T19:05:06.394Z,16.20
2022-10-11T19:08:18.943Z,17.35
2022-10-11T19:11:09.071Z,16.00
2022-10-11T19:13:56.545Z,16.52
2022-10-11T19:16:46.240Z,17.33
2022-10-11T19:19:33.599Z,17.00
2022-10-11T19:22:44.738Z,18.77
2022-10-11T19:25:30.668Z,17.67
2022-10-11T19:28:16.817Z,19.02
2022-10-11T19:31:04.614Z,19.20
2022-10-11T19:34:16.665Z,19.45
2022-10-11T19:37:05.136Z,18.92
2022-10-11T19:39:51.482Z,29.08
2022-10-11T19:43:02.806Z,18.05
2022-10-11T19:45:49.180Z,16.67
2022-10-11T19:48:38.643Z,16.73
2022-10-11T19:51:25.998Z,17.77
2022-10-11T19:54:36.946Z,17.35
2022-10-11T19:57:27.490Z,19.80
2022-10-11T20:00:51.894Z,16.45
2022-10-11T20:06:45.323Z,16.48
2022-10-11T20:09:42.421Z,22.67
2022-10-11T20:12:34.667Z,17.58
2022-10-11T20:15:20.786Z,15.85
2022-10-11T20:18:07.004Z,14.48
2022-10-11T20:20:54.022Z,14.45
2022-10-11T20:24:08.482Z,14.35
2022-10-11T20:26:54.886Z,15.38
2022-10-11T20:30:05.739Z,14.38
2022-10-11T20:32:51.532Z,13.80
2022-10-11T20:35:38.049Z,11.10
2022-10-11T20:38:24.099Z,9.73
2022-10-11T20:41:11.766Z,10.52
2022-10-11T20:43:58.235Z,11.15
2022-10-11T20:46:44.402Z,11.98
2022-10-11T20:49:30.705Z,10.93
2022-10-11T20:52:41.730Z,11.48
2022-10-11T20:56:18.742Z,11.38
2022-10-11T20:59:29.845Z,11.15
2022-10-11T21:02:18.995Z,13.32
2022-10-11T21:05:06.055Z,12.55
2022-10-11T21:07:53.198Z,13.13
2022-10-11T21:10:39.285Z,14.98
2022-10-11T21:13:25.596Z,12.32
2022-10-11T21:16:15.839Z,12.88
2022-10-11T21:19:02.262Z,14.40
2022-10-11T21:21:52.696Z,15.73
2022-10-11T21:25:17.166Z,15.45
2022-10-11T21:28:04.147Z,14.73
2022-10-11T21:30:50.194Z,15.07
2022-10-11T21:33:36.511Z,15.77
2022-10-11T21:36:23.168Z,12.35
2022-10-11T21:39:09.454Z,12.25
2022-10-11T21:41:56.653Z,14.52
2022-10-11T21:44:43.616Z,15.00
2022-10-11T21:47:54.813Z,17.30
2022-10-11T21:50:40.724Z,16.40
2022-10-11T21:53:26.814Z,17.00
2022-10-11T21:56:12.930Z,15.57
2022-10-11T21:58:59.485Z,18.13
2022-10-11T22:01:45.340Z,13.77
2022-10-11T22:04:31.282Z,13.07
2022-10-11T22:07:17.573Z,14.73
2022-10-11T22:10:03.788Z,8.07
2022-10-11T22:12:49.785Z,13.45
2022-10-11T22:15:36.587Z,12.68
2022-10-11T22:18:23.445Z,14.27
2022-10-11T22:21:13.519Z,12.65
2022-10-11T22:24:58.236Z,12.32
2022-10-11T22:27:44.224Z,11.85
2022-10-11T22:30:30.281Z,11.32
2022-10-11T22:33:17.056Z,12.35
2022-10-11T22:36:04.640Z,12.00
2022-10-11T22:38:51.554Z,14.55
2022-10-11T22:41:37.888Z,14.75
2022-10-11T22:44:24.007Z,13.32
2022-10-11T22:47:36.214Z,12.50
2022-10-11T22:50:22.803Z,14.65
2022-10-11T22:53:09.284Z,14.95
2022-10-11T22:55:55.728Z,15.25
2022-10-11T22:59:06.907Z,12.25
2022-10-11T23:01:52.913Z,10.60
2022-10-11T23:04:38.973Z,11.20
2022-10-11T23:07:49.941Z,11.00
2022-10-11T23:10:39.644Z,11.25
2022-10-11T23:13:25.787Z,11.00
2022-10-11T23:16:12.534Z,9.10
2022-10-11T23:18:58.529Z,10.20
2022-10-11T23:21:44.972Z,9.85
2022-10-11T23:24:30.736Z,10.10
2022-10-11T23:27:16.881Z,10.85
2022-10-11T23:30:03.925Z,11.70
2022-10-11T23:33:15.959Z,11.93
2022-10-11T23:36:08.208Z,12.23
2022-10-11T23:38:58.811Z,6.43
2022-10-11T23:41:44.734Z,12.60
2022-10-11T23:44:30.955Z,12.73
2022-10-11T23:47:43.053Z,11.88
2022-10-11T23:50:47.306Z,12.32
2022-10-11T23:53:33.530Z,13.65
2022-10-11T23:56:19.660Z,11.18
2022-10-11T23:59:05.694Z,11.48
